Aeroporto :
LOGIN :

Iscrizione | Disclaimer

   EN    FR    IT 

 










Sommario :    VFR   VFR Marginale   IFR   IFR Intensivo   IFR Molto Intensivo
Visibilità : 
Base nubi : 
>= 8 km
>= 3000ft
5 / 8 km
1000 / 3000 ft
1500m / 5 km
500 / 1000 ft
800 / 1500m
200 / 500 ft
< 800m
< 200 ft
Simboli :   Temporali  Nebbia  Neve Forte  Precipitazioni Forti  Vento > 20 kt
SIGMETs :   Varie  Temporali  Ghiacco  Turbolenza  Onda orograficha  Ceneri Vulcaniche






- Altitudine del aeroporto : 80 ft
- Codice IATA : LPL


EGGP - Liverpool John Lennon

ULTIMO METAR :
  • 251420Z AUTO 29014KT 9999 SCT022/// 07/02 Q1011

METARs OBSOLETI :
  • 251350Z AUTO 29016KT 9999 SCT019/// BKN025/// BKN032/// 06/03 Q1010
  • 251320Z AUTO 28015KT 9999 SCT020/// BKN026/// 06/03 Q1010
  • 251250Z AUTO 28017KT 9999 BKN019/// 07/03 Q1010
  • 251220Z AUTO 29012KT 9999 SCT021/// BKN026/// BKN033/// 06/03 Q1009
  • 251150Z AUTO 28011KT 9999 FEW015/// SCT020/// BKN028/// 06/04 Q1009 RERA

TAF TAF EGGP
Valido dal 25 a 12 ore il 26 a 12 ore UTC


251101Z 2512/2612 28010KT 9999 SCT020
BECMG 2521/2524 22004KT
TEMPO 2608/2612 7000 -RADZ BKN012
PROB30
TEMPO 2610/2612 3000 RA RADZ BKN006
ATIS : +44 151 907 2000 (option 5 or ext 5150)
Met : +44 871 750 5150



MetMap, La meteo Aeronautica in un colpo d'occhio ! - Copyright ORBIFLY Dicembre 2007 - Disclaimer

ORBIFLY MET'MAP TEAM :

Programmazione e sviluppo : Alexandra Zaïnal
Concezione : Baudouin d'Aumeries
Aiuto per la programmazione : Marc-Olivier Méhu
Supporto tecnico e logistico : Manuel Goepfert
Aiuto per la traduzione : Arnaldo La Scala

Contatto : metmap@orbifly.com




FONTI E CREDITI :

   NOAA